Time;durP1;ratioP1;P1;durP2;ratioP2;P2;SDS_P1;SDS_P2;PMS_P1;PMS_P2;Temp;Humidity;BMP_temperature;BMP_pressure;BME280_temperature;BME280_humidity;BME280_pressure;Samples;Min_cycle;Max_cycle;Signal;HPM_P1;HPM_P2
2022/03/04 00:00:56;;;;;;;;;;;;;;;;;;2092363;28;19956;-55
2022/03/04 00:01:58;;;;;;;;;;;;;;;;;;2098262;28;19939;-54
2022/03/04 00:02:59;;;;;;;;;;;;;;;;;;2095268;28;20502;-56
2022/03/04 00:04:00;;;;;;;;;;;;;;;;;;2097989;28;19967;-56
2022/03/04 00:05:01;;;;;;;;;;;;;;;;;;2098240;28;19966;-54
2022/03/04 00:06:03;;;;;;;;;;;;;;;;;;2094064;28;19963;-55
2022/03/04 00:07:04;;;;;;;;;;;;;;;;;;2096928;28;20041;-55
2022/03/04 00:08:05;;;;;;;;;;;;;;;;;;2097367;28;20355;-55
2022/03/04 00:09:06;;;;;;;;;;;;;;;;;;2096406;28;20399;-54
2022/03/04 00:10:08;;;;;;;;;;;;;;;;;;2097861;28;19951;-57
2022/03/04 00:11:09;;;;;;;;;;;;;;;;;;2097148;28;20379;-47
2022/03/04 00:12:10;;;;;;;;;;;;;;;;;;2096306;28;19950;-46
2022/03/04 00:13:11;;;;;;;;;;;;;;;;;;2097805;28;20428;-46
2022/03/04 00:14:12;;;;;;;;;;;;;;;;;;2095907;28;19932;-47
2022/03/04 00:15:13;;;;;;;;;;;;;;;;;;2090175;28;19956;-46
2022/03/04 00:16:14;;;;;;;;;;;;;;;;;;2097816;28;20006;-47
2022/03/04 00:17:15;;;;;;;;;;;;;;;;;;2093837;28;20011;-48
2022/03/04 00:18:17;;;;;;;;;;;;;;;;;;2098194;28;19928;-56
2022/03/04 00:19:18;;;;;;;;;;;;;;;;;;2097578;28;19990;-57
2022/03/04 00:20:19;;;;;;;;;;;;;;;;;;2095191;28;19928;-57
2022/03/04 00:21:20;;;;;;;;;;;;;;;;;;2097980;28;19968;-57
2022/03/04 00:22:21;;;;;;;;;;;;;;;;;;2095836;28;19982;-53
2022/03/04 00:23:23;;;;;;;;;;;;;;;;;;2095876;28;20385;-57
2022/03/04 00:24:25;;;;;;;;;;;;;;;;;;2098146;28;20399;-58
2022/03/04 00:25:27;;;;;;;;;;;;;;;;;;2096236;28;20091;-58
2022/03/04 00:26:29;;;;;;;;;;;;;;;;;;2096783;28;19924;-57
2022/03/04 00:27:31;;;;;;;;;;;;;;;;;;2098001;28;20350;-59
2022/03/04 00:28:32;;;;;;;;;;;;;;;;;;2095819;28;19931;-58
2022/03/04 00:29:34;;;;;;;;;;;;;;;;;;2093211;28;20305;-52
2022/03/04 00:30:34;;;;;;;;;;;;;;;;;;2097481;28;20332;-51
2022/03/04 00:31:36;;;;;;;;;;;;;;;;;;2095214;28;20331;-58
2022/03/04 00:32:37;;;;;;;;;;;;;;;;;;2089693;28;20390;-59
2022/03/04 00:33:38;;;;;;;;;;;;;;;;;;2094802;28;19931;-58
2022/03/04 00:34:39;;;;;;;;;;;;;;;;;;2096176;28;19982;-59
2022/03/04 00:35:40;;;;;;;;;;;;;;;;;;2097962;28;19925;-59
2022/03/04 00:36:41;;;;;;;;;;;;;;;;;;2096618;28;20504;-58
2022/03/04 00:37:43;;;;;;;;;;;;;;;;;;2096955;28;19931;-58
2022/03/04 00:38:44;;;;;;;;;;;;;;;;;;2098057;28;19959;-58
2022/03/04 00:39:45;;;;;;;;;;;;;;;;;;2093993;28;20004;-47
2022/03/04 00:40:47;;;;;;;;;;;;;;;;;;2096815;28;19929;-49
2022/03/04 00:41:49;;;;;;;;;;;;;;;;;;2098058;28;19932;-48
2022/03/04 00:42:50;;;;;;;;;;;;;;;;;;2096090;28;19931;-58
2022/03/04 00:43:51;;;;;;;;;;;;;;;;;;2098053;28;19932;-55
2022/03/04 00:44:52;;;;;;;;;;;;;;;;;;2097313;28;19943;-58
2022/03/04 00:45:53;;;;;;;;;;;;;;;;;;2094758;28;19933;-56
2022/03/04 00:46:54;;;;;;;;;;;;;;;;;;2097869;28;19932;-58
2022/03/04 00:47:56;;;;;;;;;;;;;;;;;;2093552;28;19936;-59
2022/03/04 00:48:57;;;;;;;;;;;;;;;;;;2095901;28;20439;-51
2022/03/04 00:49:58;;;;;;;;;;;;;;;;;;2099799;28;19925;-47
2022/03/04 00:50:59;;;;;;;;;;;;;;;;;;2099740;28;19968;-47
2022/03/04 00:52:01;;;;;;;;;;;;;;;;;;2097272;28;19931;-49
2022/03/04 00:53:02;;;;;;;;;;;;;;;;;;2098090;28;19928;-50
2022/03/04 00:54:04;;;;;;;;;;;;;;;;;;2095540;28;20390;-47
2022/03/04 00:55:05;;;;;;;;;;;;;;;;;;2097415;28;20394;-52
2022/03/04 00:56:06;;;;;;;;;;;;;;;;;;2097706;28;19928;-49
2022/03/04 00:57:07;;;;;;;;;;;;;;;;;;2093175;28;19924;-47
2022/03/04 00:58:09;;;;;;;;;;;;;;;;;;2097176;28;20331;-48
2022/03/04 00:59:10;;;;;;;;;;;;;;;;;;2097157;28;19932;-48
2022/03/04 01:00:11;;;;;;;;;;;;;;;;;;2095970;28;19924;-48
2022/03/04 01:01:12;;;;;;;;;;;;;;;;;;2097454;28;19925;-47
2022/03/04 01:02:13;;;;;;;;;;;;;;;;;;2095144;28;19925;-49
2022/03/04 01:03:15;;;;;;;;;;;;;;;;;;2096072;28;19928;-47
2022/03/04 01:04:16;;;;;;;;;;;;;;;;;;2097845;28;20070;-58
2022/03/04 01:05:17;;;;;;;;;;;;;;;;;;2095784;28;19960;-56
2022/03/04 01:06:18;;;;;;;;;;;;;;;;;;2097602;28;19947;-56
2022/03/04 01:07:19;;;;;;;;;;;;;;;;;;2098174;28;19925;-55
2022/03/04 01:08:21;;;;;;;;;;;;;;;;;;2094422;28;20278;-55
2022/03/04 01:09:22;;;;;;;;;;;;;;;;;;2098151;28;19996;-58
2022/03/04 01:10:23;;;;;;;;;;;;;;;;;;2097357;28;20427;-54
2022/03/04 01:11:24;;;;;;;;;;;;;;;;;;2096043;28;20262;-56
2022/03/04 01:12:25;;;;;;;;;;;;;;;;;;2097929;28;19928;-48
2022/03/04 01:13:26;;;;;;;;;;;;;;;;;;2096574;28;19978;-48
2022/03/04 01:14:28;;;;;;;;;;;;;;;;;;2095766;28;19925;-49
2022/03/04 01:15:29;;;;;;;;;;;;;;;;;;2097721;28;19947;-48
2022/03/04 01:16:30;;;;;;;;;;;;;;;;;;2096543;28;19925;-47
2022/03/04 01:17:31;;;;;;;;;;;;;;;;;;2096447;28;20275;-47
2022/03/04 01:18:32;;;;;;;;;;;;;;;;;;2097914;28;19931;-47
2022/03/04 01:19:34;;;;;;;;;;;;;;;;;;2095214;28;19924;-47
2022/03/04 01:20:35;;;;;;;;;;;;;;;;;;2098086;28;19929;-46
2022/03/04 01:21:38;;;;;;;;;;;;;;;;;;2097610;28;20362;-56
2022/03/04 01:22:39;;;;;;;;;;;;;;;;;;2094294;28;20416;-55
2022/03/04 01:23:40;;;;;;;;;;;;;;;;;;2092079;28;19925;-55
2022/03/04 01:24:41;;;;;;;;;;;;;;;;;;2090662;28;20023;-47
2022/03/04 01:25:42;;;;;;;;;;;;;;;;;;2095345;28;19932;-46
2022/03/04 01:26:44;;;;;;;;;;;;;;;;;;2096234;28;19924;-46
2022/03/04 01:27:45;;;;;;;;;;;;;;;;;;2096273;28;19925;-47
2022/03/04 01:28:46;;;;;;;;;;;;;;;;;;2097846;28;19929;-57
2022/03/04 01:29:47;;;;;;;;;;;;;;;;;;2099313;28;19932;-48
2022/03/04 01:30:48;;;;;;;;;;;;;;;;;;2097096;28;20034;-55
2022/03/04 01:31:49;;;;;;;;;;;;;;;;;;2104431;28;20437;-56
2022/03/04 01:32:51;;;;;;;;;;;;;;;;;;2106981;28;19945;-48
2022/03/04 01:33:52;;;;;;;;;;;;;;;;;;2097333;28;19972;-48
2022/03/04 01:34:54;;;;;;;;;;;;;;;;;;2099392;28;19925;-58
2022/03/04 01:35:55;;;;;;;;;;;;;;;;;;2098461;28;19975;-55
2022/03/04 01:36:56;;;;;;;;;;;;;;;;;;2097427;28;20281;-56
2022/03/04 01:37:57;;;;;;;;;;;;;;;;;;2099070;28;19963;-56
2022/03/04 01:38:59;;;;;;;;;;;;;;;;;;2098259;28;19931;-57
2022/03/04 01:40:00;;;;;;;;;;;;;;;;;;2096584;28;20466;-56
2022/03/04 01:41:01;;;;;;;;;;;;;;;;;;2099050;28;19939;-55
2022/03/04 01:42:02;;;;;;;;;;;;;;;;;;2098453;28;19972;-47
2022/03/04 01:43:03;;;;;;;;;;;;;;;;;;2090843;28;20035;-48
2022/03/04 01:44:05;;;;;;;;;;;;;;;;;;2090934;28;19971;-49
2022/03/04 01:45:07;;;;;;;;;;;;;;;;;;2094784;28;19924;-55
2022/03/04 01:46:08;;;;;;;;;;;;;;;;;;2099092;28;19924;-56
2022/03/04 01:47:09;;;;;;;;;;;;;;;;;;2098868;28;20564;-57
2022/03/04 01:48:10;;;;;;;;;;;;;;;;;;2094344;28;20415;-49
2022/03/04 01:49:11;;;;;;;;;;;;;;;;;;2098893;28;19925;-48
2022/03/04 01:50:12;;;;;;;;;;;;;;;;;;2099242;28;19924;-47
2022/03/04 01:51:14;;;;;;;;;;;;;;;;;;2096793;28;20298;-47
2022/03/04 01:52:15;;;;;;;;;;;;;;;;;;2098660;28;20428;-48
2022/03/04 01:53:16;;;;;;;;;;;;;;;;;;2095851;28;19940;-57
2022/03/04 01:54:17;;;;;;;;;;;;;;;;;;2097782;28;19925;-58
2022/03/04 01:55:18;;;;;;;;;;;;;;;;;;2099100;28;19931;-57
2022/03/04 01:56:19;;;;;;;;;;;;;;;;;;2096673;28;20888;-56
2022/03/04 01:57:20;;;;;;;;;;;;;;;;;;2098761;28;19925;-57
2022/03/04 01:58:22;;;;;;;;;;;;;;;;;;2098880;28;19931;-56
2022/03/04 01:59:23;;;;;;;;;;;;;;;;;;2096816;28;19932;-46
2022/03/04 02:00:24;;;;;;;;;;;;;;;;;;2099182;28;20008;-55
2022/03/04 02:01:25;;;;;;;;;;;;;;;;;;2098554;28;19975;-46
2022/03/04 02:02:27;;;;;;;;;;;;;;;;;;2097103;28;20327;-48
2022/03/04 02:03:28;;;;;;;;;;;;;;;;;;2098974;28;19971;-46
2022/03/04 02:04:29;;;;;;;;;;;;;;;;;;2098186;28;19932;-48
2022/03/04 02:05:30;;;;;;;;;;;;;;;;;;2097646;28;20043;-46
2022/03/04 02:06:32;;;;;;;;;;;;;;;;;;2098594;28;19935;-46
2022/03/04 02:07:33;;;;;;;;;;;;;;;;;;2096755;28;19957;-55
2022/03/04 02:08:37;;;;;;;;;;;;;;;;;;2090716;28;20390;-55
2022/03/04 02:09:38;;;;;;;;;;;;;;;;;;2092595;28;19925;-54
2022/03/04 02:10:39;;;;;;;;;;;;;;;;;;2096608;28;20305;-54
2022/03/04 02:11:43;;;;;;;;;;;;;;;;;;2098785;28;19978;-55
2022/03/04 02:12:44;;;;;;;;;;;;;;;;;;2098349;28;19956;-54
2022/03/04 02:13:45;;;;;;;;;;;;;;;;;;2096125;28;20039;-55
2022/03/04 02:14:46;;;;;;;;;;;;;;;;;;2098932;28;20170;-55
2022/03/04 02:15:47;;;;;;;;;;;;;;;;;;2098031;28;20007;-56
2022/03/04 02:16:49;;;;;;;;;;;;;;;;;;2096492;28;19978;-56
2022/03/04 02:17:50;;;;;;;;;;;;;;;;;;2098761;28;19931;-48
2022/03/04 02:18:52;;;;;;;;;;;;;;;;;;2094235;28;19939;-48
2022/03/04 02:19:53;;;;;;;;;;;;;;;;;;2098629;28;20012;-47
2022/03/04 02:20:54;;;;;;;;;;;;;;;;;;2098665;28;19979;-46
2022/03/04 02:21:55;;;;;;;;;;;;;;;;;;2096429;28;20058;-47
2022/03/04 02:22:56;;;;;;;;;;;;;;;;;;2098821;28;20002;-47
2022/03/04 02:23:57;;;;;;;;;;;;;;;;;;2098848;28;19970;-47
2022/03/04 02:24:59;;;;;;;;;;;;;;;;;;2095242;28;19954;-47
2022/03/04 02:25:59;;;;;;;;;;;;;;;;;;2098992;28;19971;-46
2022/03/04 02:27:01;;;;;;;;;;;;;;;;;;2098242;28;19947;-46
2022/03/04 02:28:02;;;;;;;;;;;;;;;;;;2096811;28;19928;-54
2022/03/04 02:29:03;;;;;;;;;;;;;;;;;;2098928;28;19928;-55
2022/03/04 02:30:04;;;;;;;;;;;;;;;;;;2097777;28;20057;-54
2022/03/04 02:31:05;;;;;;;;;;;;;;;;;;2097721;28;19943;-47
2022/03/04 02:32:06;;;;;;;;;;;;;;;;;;2106479;28;19924;-46
2022/03/04 02:33:08;;;;;;;;;;;;;;;;;;2100012;28;19924;-47
2022/03/04 02:34:09;;;;;;;;;;;;;;;;;;2098508;28;19929;-48
2022/03/04 02:35:10;;;;;;;;;;;;;;;;;;2098336;28;19967;-46
2022/03/04 02:36:11;;;;;;;;;;;;;;;;;;2095636;28;20043;-47
2022/03/04 02:37:12;;;;;;;;;;;;;;;;;;2097478;28;19928;-48
2022/03/04 02:38:13;;;;;;;;;;;;;;;;;;2098057;28;19925;-47
2022/03/04 02:39:15;;;;;;;;;;;;;;;;;;2093875;28;19972;-47
2022/03/04 02:40:15;;;;;;;;;;;;;;;;;;2090399;28;19933;-46
2022/03/04 02:41:17;;;;;;;;;;;;;;;;;;2091666;28;19925;-47
2022/03/04 02:42:18;;;;;;;;;;;;;;;;;;2096416;28;20208;-46
2022/03/04 02:43:19;;;;;;;;;;;;;;;;;;2098560;28;19962;-48
2022/03/04 02:44:20;;;;;;;;;;;;;;;;;;2097903;28;19931;-55
2022/03/04 02:45:21;;;;;;;;;;;;;;;;;;2097395;28;20492;-55
2022/03/04 02:46:23;;;;;;;;;;;;;;;;;;2098544;28;19924;-55
2022/03/04 02:47:24;;;;;;;;;;;;;;;;;;2096556;28;19924;-55
2022/03/04 02:48:25;;;;;;;;;;;;;;;;;;2098743;28;19990;-54
2022/03/04 02:49:26;;;;;;;;;;;;;;;;;;2098580;28;20002;-51
2022/03/04 02:50:27;;;;;;;;;;;;;;;;;;2097343;28;19936;-47
2022/03/04 02:51:28;;;;;;;;;;;;;;;;;;2098449;28;19924;-54
2022/03/04 02:52:29;;;;;;;;;;;;;;;;;;2098248;28;19931;-55
2022/03/04 02:53:31;;;;;;;;;;;;;;;;;;2096808;28;19931;-56
2022/03/04 02:54:32;;;;;;;;;;;;;;;;;;2098453;28;19931;-56
2022/03/04 02:55:33;;;;;;;;;;;;;;;;;;2096023;28;20010;-57
2022/03/04 02:56:34;;;;;;;;;;;;;;;;;;2097262;28;19932;-54
2022/03/04 02:57:35;;;;;;;;;;;;;;;;;;2098354;28;20333;-55
2022/03/04 02:58:36;;;;;;;;;;;;;;;;;;2095901;28;19970;-55
2022/03/04 02:59:37;;;;;;;;;;;;;;;;;;2097942;28;20298;-54
2022/03/04 03:00:38;;;;;;;;;;;;;;;;;;2098142;28;20389;-55
2022/03/04 03:01:40;;;;;;;;;;;;;;;;;;2094989;28;20364;-55
2022/03/04 03:02:42;;;;;;;;;;;;;;;;;;2097892;28;20416;-55
2022/03/04 03:03:43;;;;;;;;;;;;;;;;;;2097849;28;20250;-55
2022/03/04 03:04:44;;;;;;;;;;;;;;;;;;2094826;28;20452;-51
2022/03/04 03:05:45;;;;;;;;;;;;;;;;;;2098384;28;19928;-54
2022/03/04 03:06:46;;;;;;;;;;;;;;;;;;2096482;28;19985;-55
2022/03/04 03:07:48;;;;;;;;;;;;;;;;;;2095933;28;19928;-56
2022/03/04 03:08:49;;;;;;;;;;;;;;;;;;2097780;28;20270;-55
2022/03/04 03:09:50;;;;;;;;;;;;;;;;;;2092047;28;19974;-56
2022/03/04 03:10:52;;;;;;;;;;;;;;;;;;2097580;28;20015;-48
2022/03/04 03:11:53;;;;;;;;;;;;;;;;;;2098296;28;20370;-46
2022/03/04 03:12:54;;;;;;;;;;;;;;;;;;2096568;28;19929;-47
2022/03/04 03:13:55;;;;;;;;;;;;;;;;;;2097375;28;19932;-51
2022/03/04 03:14:56;;;;;;;;;;;;;;;;;;2098670;28;19924;-48
2022/03/04 03:15:57;;;;;;;;;;;;;;;;;;2095319;28;20011;-46
2022/03/04 03:16:59;;;;;;;;;;;;;;;;;;2097886;28;19925;-47
2022/03/04 03:18:00;;;;;;;;;;;;;;;;;;2097399;28;20324;-54
2022/03/04 03:19:01;;;;;;;;;;;;;;;;;;2096096;28;19928;-54
2022/03/04 03:20:02;;;;;;;;;;;;;;;;;;2096166;28;20034;-55
2022/03/04 03:21:03;;;;;;;;;;;;;;;;;;2097058;28;19982;-55
2022/03/04 03:22:04;;;;;;;;;;;;;;;;;;2096946;28;20496;-55
2022/03/04 03:23:05;;;;;;;;;;;;;;;;;;2098420;28;19928;-54
2022/03/04 03:24:06;;;;;;;;;;;;;;;;;;2094691;28;19970;-51
2022/03/04 03:25:08;;;;;;;;;;;;;;;;;;2097854;28;19993;-55
2022/03/04 03:26:09;;;;;;;;;;;;;;;;;;2098057;28;19928;-55
2022/03/04 03:27:10;;;;;;;;;;;;;;;;;;2096158;28;20314;-52
2022/03/04 03:28:11;;;;;;;;;;;;;;;;;;2097546;28;19979;-54
2022/03/04 03:29:12;;;;;;;;;;;;;;;;;;2098235;28;19925;-46
2022/03/04 03:30:13;;;;;;;;;;;;;;;;;;2096344;28;19972;-49
2022/03/04 03:31:15;;;;;;;;;;;;;;;;;;2097979;28;19932;-46
2022/03/04 03:32:16;;;;;;;;;;;;;;;;;;2097130;28;19929;-49
2022/03/04 03:33:17;;;;;;;;;;;;;;;;;;2097369;28;20355;-47
2022/03/04 03:34:18;;;;;;;;;;;;;;;;;;2097613;28;20385;-46
2022/03/04 03:35:19;;;;;;;;;;;;;;;;;;2096852;28;19924;-54
2022/03/04 03:36:21;;;;;;;;;;;;;;;;;;2096936;28;19924;-54
2022/03/04 03:37:22;;;;;;;;;;;;;;;;;;2097185;28;20348;-53
2022/03/04 03:38:24;;;;;;;;;;;;;;;;;;2095724;28;20012;-54
2022/03/04 03:39:25;;;;;;;;;;;;;;;;;;2092176;28;19932;-52
2022/03/04 03:40:26;;;;;;;;;;;;;;;;;;2098338;28;19960;-54
2022/03/04 03:41:27;;;;;;;;;;;;;;;;;;2095350;28;19924;-55
2022/03/04 03:42:28;;;;;;;;;;;;;;;;;;2098043;28;19924;-52
2022/03/04 03:43:30;;;;;;;;;;;;;;;;;;2097228;28;19960;-54
2022/03/04 03:44:31;;;;;;;;;;;;;;;;;;2096217;28;19924;-53
2022/03/04 03:45:32;;;;;;;;;;;;;;;;;;2098538;28;19946;-49
2022/03/04 03:46:33;;;;;;;;;;;;;;;;;;2096502;28;19990;-47
2022/03/04 03:47:34;;;;;;;;;;;;;;;;;;2096617;28;19924;-48
2022/03/04 03:48:39;;;;;;;;;;;;;;;;;;2096014;28;19963;-46
2022/03/04 03:49:40;;;;;;;;;;;;;;;;;;2096021;28;19939;-48
2022/03/04 03:50:41;;;;;;;;;;;;;;;;;;2102796;28;20422;-47
2022/03/04 03:51:43;;;;;;;;;;;;;;;;;;2097713;28;20011;-46
2022/03/04 03:52:43;;;;;;;;;;;;;;;;;;2095834;28;20022;-48
2022/03/04 03:53:45;;;;;;;;;;;;;;;;;;2097872;28;19924;-47
2022/03/04 03:54:46;;;;;;;;;;;;;;;;;;2096860;28;20018;-47
2022/03/04 03:55:47;;;;;;;;;;;;;;;;;;2095986;28;19947;-48
2022/03/04 03:56:48;;;;;;;;;;;;;;;;;;2098249;28;19979;-49
2022/03/04 03:57:49;;;;;;;;;;;;;;;;;;2096384;28;19924;-47
2022/03/04 03:58:51;;;;;;;;;;;;;;;;;;2096702;28;20377;-48
2022/03/04 03:59:52;;;;;;;;;;;;;;;;;;2097058;28;20011;-46
2022/03/04 04:00:55;;;;;;;;;;;;;;;;;;2097076;28;19932;-50
2022/03/04 04:01:56;;;;;;;;;;;;;;;;;;2095181;28;20377;-49
2022/03/04 04:02:57;;;;;;;;;;;;;;;;;;2097601;28;19937;-46
2022/03/04 04:03:59;;;;;;;;;;;;;;;;;;2095753;28;19966;-47
2022/03/04 04:05:00;;;;;;;;;;;;;;;;;;2096824;28;19932;-48
2022/03/04 04:06:01;;;;;;;;;;;;;;;;;;2098144;28;19978;-45
2022/03/04 04:07:02;;;;;;;;;;;;;;;;;;2094337;28;19939;-48
2022/03/04 04:08:03;;;;;;;;;;;;;;;;;;2097072;28;19932;-46
2022/03/04 04:09:04;;;;;;;;;;;;;;;;;;2097796;28;20394;-46
2022/03/04 04:10:06;;;;;;;;;;;;;;;;;;2096805;28;19928;-46
2022/03/04 04:11:07;;;;;;;;;;;;;;;;;;2097308;28;20350;-47
2022/03/04 04:12:08;;;;;;;;;;;;;;;;;;2094624;28;19931;-46
2022/03/04 04:13:09;;;;;;;;;;;;;;;;;;2096599;28;20399;-47
2022/03/04 04:14:10;;;;;;;;;;;;;;;;;;2097733;28;20205;-47
2022/03/04 04:15:11;;;;;;;;;;;;;;;;;;2095403;28;20033;-47
2022/03/04 04:16:14;;;;;;;;;;;;;;;;;;2097687;28;20439;-47
2022/03/04 04:17:15;;;;;;;;;;;;;;;;;;2089841;28;19928;-47
2022/03/04 04:18:16;;;;;;;;;;;;;;;;;;2093731;28;19932;-46
2022/03/04 04:19:17;;;;;;;;;;;;;;;;;;2097812;28;19998;-46
2022/03/04 04:20:19;;;;;;;;;;;;;;;;;;2095012;28;20385;-46
2022/03/04 04:21:19;;;;;;;;;;;;;;;;;;2096400;28;20200;-47
2022/03/04 04:22:21;;;;;;;;;;;;;;;;;;2097236;28;20387;-48
2022/03/04 04:23:22;;;;;;;;;;;;;;;;;;2095658;28;20333;-49
2022/03/04 04:24:23;;;;;;;;;;;;;;;;;;2097799;28;20023;-46
2022/03/04 04:25:24;;;;;;;;;;;;;;;;;;2097564;28;19932;-47
2022/03/04 04:26:26;;;;;;;;;;;;;;;;;;2095234;28;19932;-47
2022/03/04 04:27:27;;;;;;;;;;;;;;;;;;2097230;28;19928;-46
2022/03/04 04:28:28;;;;;;;;;;;;;;;;;;2096952;28;20031;-46
2022/03/04 04:29:32;;;;;;;;;;;;;;;;;;2096264;28;20289;-54
2022/03/04 04:30:33;;;;;;;;;;;;;;;;;;2097400;28;20007;-54
2022/03/04 04:31:35;;;;;;;;;;;;;;;;;;2096150;28;19930;-51
2022/03/04 04:32:36;;;;;;;;;;;;;;;;;;2095654;28;19964;-54
2022/03/04 04:33:38;;;;;;;;;;;;;;;;;;2097735;28;19939;-57
2022/03/04 04:34:39;;;;;;;;;;;;;;;;;;2094423;28;20377;-53
2022/03/04 04:35:40;;;;;;;;;;;;;;;;;;2097378;28;19931;-54
2022/03/04 04:36:41;;;;;;;;;;;;;;;;;;2097444;28;19924;-54
2022/03/04 04:37:42;;;;;;;;;;;;;;;;;;2096552;28;19994;-53
2022/03/04 04:38:43;;;;;;;;;;;;;;;;;;2097876;28;19924;-53
2022/03/04 04:39:44;;;;;;;;;;;;;;;;;;2097757;28;20014;-51
2022/03/04 04:40:46;;;;;;;;;;;;;;;;;;2094271;28;20427;-45
2022/03/04 04:41:47;;;;;;;;;;;;;;;;;;2097565;28;19928;-46
2022/03/04 04:42:48;;;;;;;;;;;;;;;;;;2096781;28;19966;-46
2022/03/04 04:43:49;;;;;;;;;;;;;;;;;;2095718;28;19931;-46
2022/03/04 04:44:50;;;;;;;;;;;;;;;;;;2097607;28;19924;-46
2022/03/04 04:45:53;;;;;;;;;;;;;;;;;;2095213;28;20254;-46
2022/03/04 04:46:54;;;;;;;;;;;;;;;;;;2097387;28;19935;-47
2022/03/04 04:47:55;;;;;;;;;;;;;;;;;;2096992;28;19978;-48
2022/03/04 04:48:56;;;;;;;;;;;;;;;;;;2094519;28;20011;-46
2022/03/04 04:49:57;;;;;;;;;;;;;;;;;;2097029;28;19925;-46
2022/03/04 04:50:59;;;;;;;;;;;;;;;;;;2097760;28;20019;-47
2022/03/04 04:52:00;;;;;;;;;;;;;;;;;;2095227;28;20018;-47
2022/03/04 04:53:01;;;;;;;;;;;;;;;;;;2097487;28;19967;-51
2022/03/04 04:54:02;;;;;;;;;;;;;;;;;;2097255;28;19947;-46
2022/03/04 04:55:03;;;;;;;;;;;;;;;;;;2095715;28;19972;-46
2022/03/04 04:56:05;;;;;;;;;;;;;;;;;;2097235;28;19939;-46
2022/03/04 04:57:06;;;;;;;;;;;;;;;;;;2096961;28;20006;-45
2022/03/04 04:58:07;;;;;;;;;;;;;;;;;;2096214;28;20003;-48
2022/03/04 04:59:08;;;;;;;;;;;;;;;;;;2097165;28;19971;-51
2022/03/04 05:00:10;;;;;;;;;;;;;;;;;;2095273;28;20436;-54
2022/03/04 05:01:11;;;;;;;;;;;;;;;;;;2097354;28;19990;-52
2022/03/04 05:02:13;;;;;;;;;;;;;;;;;;2096822;28;20024;-54
2022/03/04 05:03:14;;;;;;;;;;;;;;;;;;2094629;28;20370;-54
2022/03/04 05:04:15;;;;;;;;;;;;;;;;;;2097397;28;20324;-46
2022/03/04 05:05:16;;;;;;;;;;;;;;;;;;2096555;28;20346;-47
2022/03/04 05:06:18;;;;;;;;;;;;;;;;;;2093985;28;19950;-47
2022/03/04 05:07:19;;;;;;;;;;;;;;;;;;2097803;28;19929;-47
2022/03/04 05:08:20;;;;;;;;;;;;;;;;;;2096676;28;19924;-53
2022/03/04 05:09:21;;;;;;;;;;;;;;;;;;2094892;28;20342;-54
2022/03/04 05:10:22;;;;;;;;;;;;;;;;;;2097317;28;19931;-52
2022/03/04 05:11:23;;;;;;;;;;;;;;;;;;2095278;28;20037;-53
2022/03/04 05:12:24;;;;;;;;;;;;;;;;;;2096381;28;19964;-54
2022/03/04 05:13:26;;;;;;;;;;;;;;;;;;2097301;28;19981;-50
2022/03/04 05:14:27;;;;;;;;;;;;;;;;;;2093309;28;19932;-53
2022/03/04 05:15:28;;;;;;;;;;;;;;;;;;2096835;28;20336;-50
2022/03/04 05:16:29;;;;;;;;;;;;;;;;;;2096652;28;19971;-54
2022/03/04 05:17:30;;;;;;;;;;;;;;;;;;2094210;28;19936;-51
2022/03/04 05:18:32;;;;;;;;;;;;;;;;;;2097963;28;20119;-54
2022/03/04 05:19:34;;;;;;;;;;;;;;;;;;2096135;28;19939;-50
2022/03/04 05:20:35;;;;;;;;;;;;;;;;;;2095780;28;19986;-53
2022/03/04 05:21:36;;;;;;;;;;;;;;;;;;2097411;28;19932;-51
2022/03/04 05:22:37;;;;;;;;;;;;;;;;;;2094490;28;20393;-54
2022/03/04 05:24:58;;;;;;;;;;;;;;;;;;2094633;28;20297;-46
2022/03/04 05:25:59;;;;;;;;;;;;;;;;;;2094369;28;19999;-51
2022/03/04 05:27:00;;;;;;;;;;;;;;;;;;2095864;28;20381;-52
2022/03/04 05:28:01;;;;;;;;;;;;;;;;;;2091037;28;20036;-50
2022/03/04 05:29:03;;;;;;;;;;;;;;;;;;2096425;28;19935;-47
2022/03/04 05:30:04;;;;;;;;;;;;;;;;;;2097529;28;20395;-45
2022/03/04 05:31:05;;;;;;;;;;;;;;;;;;2095599;28;19974;-45
2022/03/04 05:32:06;;;;;;;;;;;;;;;;;;2096800;28;20412;-46
2022/03/04 05:33:08;;;;;;;;;;;;;;;;;;2097775;28;19924;-45
2022/03/04 05:34:08;;;;;;;;;;;;;;;;;;2095341;28;20007;-46
2022/03/04 05:35:10;;;;;;;;;;;;;;;;;;2089230;28;19924;-46
2022/03/04 05:36:12;;;;;;;;;;;;;;;;;;2089329;28;19925;-45
2022/03/04 05:37:13;;;;;;;;;;;;;;;;;;2093009;28;20376;-49
2022/03/04 05:38:14;;;;;;;;;;;;;;;;;;2097678;28;20033;-46
2022/03/04 05:39:16;;;;;;;;;;;;;;;;;;2098405;28;19981;-53
2022/03/04 05:40:17;;;;;;;;;;;;;;;;;;2092207;28;19987;-53
2022/03/04 05:41:18;;;;;;;;;;;;;;;;;;2094071;28;19967;-53
2022/03/04 05:42:19;;;;;;;;;;;;;;;;;;2096138;28;19968;-54
2022/03/04 05:43:21;;;;;;;;;;;;;;;;;;2095126;28;20247;-52
2022/03/04 05:44:22;;;;;;;;;;;;;;;;;;2097605;28;20345;-54
2022/03/04 05:45:23;;;;;;;;;;;;;;;;;;2095518;28;20007;-51
2022/03/04 05:46:24;;;;;;;;;;;;;;;;;;2096893;28;20035;-51
2022/03/04 05:47:25;;;;;;;;;;;;;;;;;;2097639;28;20409;-50
2022/03/04 05:48:26;;;;;;;;;;;;;;;;;;2092663;28;20020;-50
2022/03/04 05:49:28;;;;;;;;;;;;;;;;;;2097040;28;19928;-52
2022/03/04 05:50:29;;;;;;;;;;;;;;;;;;2097164;28;20446;-52
2022/03/04 05:51:31;;;;;;;;;;;;;;;;;;2094276;28;20560;-52
2022/03/04 05:52:31;;;;;;;;;;;;;;;;;;2097486;28;20460;-51
2022/03/04 05:53:33;;;;;;;;;;;;;;;;;;2097395;28;19924;-45
2022/03/04 05:54:34;;;;;;;;;;;;;;;;;;2095714;28;19924;-48
2022/03/04 05:55:36;;;;;;;;;;;;;;;;;;2097607;28;19990;-45
2022/03/04 05:56:36;;;;;;;;;;;;;;;;;;2096257;28;19982;-45
2022/03/04 05:57:38;;;;;;;;;;;;;;;;;;2096762;28;19924;-51
2022/03/04 05:58:39;;;;;;;;;;;;;;;;;;2097080;28;20393;-54
2022/03/04 05:59:41;;;;;;;;;;;;;;;;;;2095278;28;19924;-54
2022/03/04 06:00:42;;;;;;;;;;;;;;;;;;2096728;28;19925;-51
2022/03/04 06:01:44;;;;;;;;;;;;;;;;;;2093290;28;20333;-51
2022/03/04 06:02:45;;;;;;;;;;;;;;;;;;2093771;28;20041;-54
2022/03/04 06:03:47;;;;;;;;;;;;;;;;;;2097564;28;20293;-54
2022/03/04 06:04:48;;;;;;;;;;;;;;;;;;2096563;28;19928;-53
2022/03/04 06:05:49;;;;;;;;;;;;;;;;;;2095164;28;19932;-51
2022/03/04 06:06:50;;;;;;;;;;;;;;;;;;2097509;28;19925;-52
2022/03/04 06:07:51;;;;;;;;;;;;;;;;;;2096747;28;19924;-50
2022/03/04 06:08:53;;;;;;;;;;;;;;;;;;2093956;28;19935;-46
2022/03/04 06:09:54;;;;;;;;;;;;;;;;;;2097487;28;19932;-52
2022/03/04 06:10:55;;;;;;;;;;;;;;;;;;2093768;28;20543;-55
2022/03/04 06:11:57;;;;;;;;;;;;;;;;;;2098102;28;19974;-46
2022/03/04 06:12:58;;;;;;;;;;;;;;;;;;2098565;28;19931;-55
2022/03/04 06:14:02;;;;;;;;;;;;;;;;;;2095763;28;19924;-53
2022/03/04 06:15:03;;;;;;;;;;;;;;;;;;2098874;28;20384;-55
2022/03/04 06:16:05;;;;;;;;;;;;;;;;;;2095735;28;19932;-53
2022/03/04 06:17:06;;;;;;;;;;;;;;;;;;2092869;28;19933;-52
2022/03/04 06:18:12;;;;;;;;;;;;;;;;;;2092271;28;19924;-53
2022/03/04 06:19:14;;;;;;;;;;;;;;;;;;2095529;28;20037;-55
2022/03/04 06:20:15;;;;;;;;;;;;;;;;;;2090642;28;20336;-46
2022/03/04 06:21:16;;;;;;;;;;;;;;;;;;2092075;28;19924;-46
2022/03/04 06:22:20;;;;;;;;;;;;;;;;;;2095249;28;19924;-53
2022/03/04 06:23:21;;;;;;;;;;;;;;;;;;2093492;28;19932;-52
2022/03/04 06:24:25;;;;;;;;;;;;;;;;;;2092644;28;20013;-54
2022/03/04 06:25:27;;;;;;;;;;;;;;;;;;2096552;28;19972;-53
2022/03/04 06:26:28;;;;;;;;;;;;;;;;;;2099185;28;19924;-54
2022/03/04 06:27:30;;;;;;;;;;;;;;;;;;2098471;28;19932;-45
2022/03/04 06:28:31;;;;;;;;;;;;;;;;;;2097501;28;20015;-46
2022/03/04 06:29:33;;;;;;;;;;;;;;;;;;2099089;28;19925;-47
2022/03/04 06:30:36;;;;;;;;;;;;;;;;;;2097823;28;20313;-46
2022/03/04 06:31:37;;;;;;;;;;;;;;;;;;2102096;28;20007;-45
2022/03/04 06:32:38;;;;;;;;;;;;;;;;;;2107144;28;19924;-45
2022/03/04 06:33:40;;;;;;;;;;;;;;;;;;2098202;28;19925;-46
2022/03/04 06:34:42;;;;;;;;;;;;;;;;;;2098740;28;19924;-54
2022/03/04 06:35:43;;;;;;;;;;;;;;;;;;2097676;28;20025;-51
2022/03/04 06:36:44;;;;;;;;;;;;;;;;;;2096004;28;20021;-51
2022/03/04 06:37:45;;;;;;;;;;;;;;;;;;2098673;28;19971;-51
2022/03/04 06:38:46;;;;;;;;;;;;;;;;;;2098007;28;19940;-54
2022/03/04 06:39:47;;;;;;;;;;;;;;;;;;2095666;28;20066;-52
2022/03/04 06:40:49;;;;;;;;;;;;;;;;;;2098210;28;19924;-55
2022/03/04 06:41:52;;;;;;;;;;;;;;;;;;2095911;28;19925;-53
2022/03/04 06:42:53;;;;;;;;;;;;;;;;;;2098424;28;19978;-53
2022/03/04 06:43:55;;;;;;;;;;;;;;;;;;2098639;28;19935;-53
2022/03/04 06:44:56;;;;;;;;;;;;;;;;;;2095556;28;20294;-48
2022/03/04 06:46:03;;;;;;;;;;;;;;;;;;2099119;28;19925;-47
2022/03/04 06:47:04;;;;;;;;;;;;;;;;;;2098158;28;19925;-48
2022/03/04 06:48:05;;;;;;;;;;;;;;;;;;2096306;28;19924;-46
2022/03/04 06:49:10;;;;;;;;;;;;;;;;;;2098456;28;20015;-46
2022/03/04 06:50:11;;;;;;;;;;;;;;;;;;2098479;28;19968;-45
2022/03/04 06:51:12;;;;;;;;;;;;;;;;;;2097990;28;19925;-45
2022/03/04 06:52:13;;;;;;;;;;;;;;;;;;2098661;28;20410;-45
2022/03/04 06:53:14;;;;;;;;;;;;;;;;;;2097898;28;19977;-46
2022/03/04 06:54:17;;;;;;;;;;;;;;;;;;2097221;28;20359;-52
2022/03/04 06:55:17;;;;;;;;;;;;;;;;;;2098771;28;19963;-53
2022/03/04 06:56:19;;;;;;;;;;;;;;;;;;2096557;28;19936;-48
2022/03/04 06:57:24;;;;;;;;;;;;;;;;;;2098873;28;20292;-46
2022/03/04 06:58:25;;;;;;;;;;;;;;;;;;2097125;28;19925;-46
2022/03/04 06:59:27;;;;;;;;;;;;;;;;;;2096062;28;19978;-46
2022/03/04 07:00:28;;;;;;;;;;;;;;;;;;2093638;28;19925;-52